sensor_id;sensor_type;location;lat;lon;timestamp;pressure;altitude;pressure_sealevel;temperature;humidity
16431;BME280;8325;49.284;7.238;2023-02-28T05:03:19;99565.22;;;-2.57;78.20
16431;BME280;8325;49.284;7.238;2023-02-28T05:07:32;99560.75;;;-2.72;79.20
16431;BME280;8325;49.284;7.238;2023-02-28T05:11:43;99565.94;;;-2.73;79.19
16431;BME280;8325;49.284;7.238;2023-02-28T05:15:55;99574.44;;;-2.73;79.68
16431;BME280;8325;49.284;7.238;2023-02-28T05:20:08;99575.75;;;-2.83;80.08
16431;BME280;8325;49.284;7.238;2023-02-28T05:24:26;99575.34;;;-2.74;79.67
16431;BME280;8325;49.284;7.238;2023-02-28T05:28:38;99577.00;;;-2.73;79.31
16431;BME280;8325;49.284;7.238;2023-02-28T05:32:51;99588.31;;;-2.79;80.01
16431;BME280;8325;49.284;7.238;2023-02-28T05:37:03;99579.81;;;-2.79;79.67
16431;BME280;8325;49.284;7.238;2023-02-28T05:41:15;99577.53;;;-2.85;80.27
16431;BME280;8325;49.284;7.238;2023-02-28T05:45:27;99584.59;;;-2.71;80.61
16431;BME280;8325;49.284;7.238;2023-02-28T05:49:39;99590.09;;;-2.81;80.61
16431;BME280;8325;49.284;7.238;2023-02-28T05:53:51;99583.91;;;-2.75;80.42
16431;BME280;8325;49.284;7.238;2023-02-28T05:58:02;99585.84;;;-2.80;80.51
16431;BME280;8325;49.284;7.238;2023-02-28T06:02:16;99596.56;;;-2.92;81.08
16431;BME280;8325;49.284;7.238;2023-02-28T06:06:28;99592.47;;;-2.76;81.71
16431;BME280;8325;49.284;7.238;2023-02-28T06:10:40;99591.22;;;-2.86;81.28
16431;BME280;8325;49.284;7.238;2023-02-28T06:14:52;99591.25;;;-2.88;81.01
16431;BME280;8325;49.284;7.238;2023-02-28T06:19:04;99598.22;;;-2.91;81.58
16431;BME280;8325;49.284;7.238;2023-02-28T06:23:16;99603.88;;;-2.83;81.31
16431;BME280;8325;49.284;7.238;2023-02-28T06:27:28;99602.97;;;-2.82;81.53
16431;BME280;8325;49.284;7.238;2023-02-28T06:31:39;99604.34;;;-2.75;80.94
16431;BME280;8325;49.284;7.238;2023-02-28T06:35:51;99609.22;;;-2.69;80.95
16431;BME280;8325;49.284;7.238;2023-02-28T06:40:04;99613.25;;;-2.63;80.63
16431;BME280;8325;49.284;7.238;2023-02-28T06:44:18;99609.41;;;-2.53;80.56
16431;BME280;8325;49.284;7.238;2023-02-28T06:48:30;99614.84;;;-2.61;80.80
16431;BME280;8325;49.284;7.238;2023-02-28T06:52:41;99622.41;;;-2.58;81.06
16431;BME280;8325;49.284;7.238;2023-02-28T06:56:53;99628.25;;;-2.56;80.83
16431;BME280;8325;49.284;7.238;2023-02-28T07:01:06;99630.81;;;-2.35;80.14
16431;BME280;8325;49.284;7.238;2023-02-28T07:05:18;99631.72;;;-2.36;80.18
16431;BME280;8325;49.284;7.238;2023-02-28T07:09:30;99627.72;;;-2.23;79.44
16431;BME280;8325;49.284;7.238;2023-02-28T07:13:41;99626.19;;;-2.27;79.46
16431;BME280;8325;49.284;7.238;2023-02-28T07:17:53;99639.88;;;-2.28;79.61
16431;BME280;8325;49.284;7.238;2023-02-28T07:22:06;99638.66;;;-2.19;79.49
16431;BME280;8325;49.284;7.238;2023-02-28T07:26:19;99639.06;;;-2.10;78.86
16431;BME280;8325;49.284;7.238;2023-02-28T07:30:31;99637.00;;;-2.20;79.72
16431;BME280;8325;49.284;7.238;2023-02-28T07:34:43;99651.81;;;-2.08;79.06
16431;BME280;8325;49.284;7.238;2023-02-28T07:38:54;99641.44;;;-1.86;78.73
16431;BME280;8325;49.284;7.238;2023-02-28T07:43:06;99641.63;;;-1.34;75.92
16431;BME280;8325;49.284;7.238;2023-02-28T07:47:18;99637.03;;;-1.27;76.04
16431;BME280;8325;49.284;7.238;2023-02-28T07:51:30;99629.81;;;-1.02;74.81
16431;BME280;8325;49.284;7.238;2023-02-28T07:55:42;99638.25;;;-1.17;74.59
16431;BME280;8325;49.284;7.238;2023-02-28T07:59:54;99630.59;;;-1.36;75.40
16431;BME280;8325;49.284;7.238;2023-02-28T08:04:06;99641.56;;;-1.51;75.89
16431;BME280;8325;49.284;7.238;2023-02-28T08:08:19;99640.88;;;-1.55;76.19
16431;BME280;8325;49.284;7.238;2023-02-28T08:12:31;99643.31;;;-1.52;76.43
16431;BME280;8325;49.284;7.238;2023-02-28T08:16:42;99642.63;;;-1.55;76.50
16431;BME280;8325;49.284;7.238;2023-02-28T08:20:54;99648.97;;;-1.45;76.09
16431;BME280;8325;49.284;7.238;2023-02-28T08:25:06;99649.47;;;-1.37;76.19
16431;BME280;8325;49.284;7.238;2023-02-28T08:29:19;99648.53;;;-1.36;75.88
16431;BME280;8325;49.284;7.238;2023-02-28T08:33:30;99641.72;;;-1.18;75.22
16431;BME280;8325;49.284;7.238;2023-02-28T08:37:43;99644.22;;;-1.17;75.29
16431;BME280;8325;49.284;7.238;2023-02-28T08:41:54;99642.22;;;-0.75;76.51
16431;BME280;8325;49.284;7.238;2023-02-28T08:46:17;99638.72;;;-0.74;73.69
16431;BME280;8325;49.284;7.238;2023-02-28T08:50:29;99642.00;;;-0.71;73.29
16431;BME280;8325;49.284;7.238;2023-02-28T08:54:41;99645.16;;;-0.48;72.83
16431;BME280;8325;49.284;7.238;2023-02-28T08:58:55;99635.63;;;-0.46;72.16
16431;BME280;8325;49.284;7.238;2023-02-28T09:03:07;99638.44;;;-0.51;71.73
16431;BME280;8325;49.284;7.238;2023-02-28T09:07:19;99627.16;;;-0.31;71.05
16431;BME280;8325;49.284;7.238;2023-02-28T09:11:30;99633.31;;;-0.17;70.08
16431;BME280;8325;49.284;7.238;2023-02-28T09:15:42;99628.19;;;-0.17;69.86
16431;BME280;8325;49.284;7.238;2023-02-28T09:19:53;99637.63;;;-0.18;69.41
16431;BME280;8325;49.284;7.238;2023-02-28T09:24:05;99633.31;;;-0.17;69.30
16431;BME280;8325;49.284;7.238;2023-02-28T09:28:17;99628.22;;;0.14;68.41
16431;BME280;8325;49.284;7.238;2023-02-28T09:32:29;99623.91;;;0.31;68.13
16431;BME280;8325;49.284;7.238;2023-02-28T09:36:40;99631.88;;;0.42;67.07
16431;BME280;8325;49.284;7.238;2023-02-28T09:40:59;99623.66;;;0.51;66.36
16431;BME280;8325;49.284;7.238;2023-02-28T09:45:27;99622.91;;;0.65;66.37
16431;BME280;8325;49.284;7.238;2023-02-28T09:49:43;99635.19;;;0.60;65.13
16431;BME280;8325;49.284;7.238;2023-02-28T09:53:57;99627.03;;;0.67;64.38
16431;BME280;8325;49.284;7.238;2023-02-28T10:12:13;99629.38;;;0.72;63.27
16431;BME280;8325;49.284;7.238;2023-02-28T10:20:40;99624.31;;;1.01;62.71
16431;BME280;8325;49.284;7.238;2023-02-28T10:24:55;99621.09;;;0.97;62.63
16431;BME280;8325;49.284;7.238;2023-02-28T10:29:12;99613.25;;;1.14;61.99
16431;BME280;8325;49.284;7.238;2023-02-28T10:37:39;99618.41;;;1.29;61.88
16431;BME280;8325;49.284;7.238;2023-02-28T10:41:51;99616.28;;;1.51;60.82
16431;BME280;8325;49.284;7.238;2023-02-28T10:55:15;99616.69;;;1.29;60.93
16431;BME280;8325;49.284;7.238;2023-02-28T10:59:29;99622.38;;;1.34;61.30
16431;BME280;8325;49.284;7.238;2023-02-28T11:03:41;99626.53;;;1.37;60.77
16431;BME280;8325;49.284;7.238;2023-02-28T11:07:56;99619.91;;;1.47;61.06
16431;BME280;8325;49.284;7.238;2023-02-28T11:12:31;99607.16;;;1.89;60.48
16431;BME280;8325;49.284;7.238;2023-02-28T11:16:51;99600.97;;;2.05;59.86
16431;BME280;8325;49.284;7.238;2023-02-28T11:26:45;99598.97;;;1.96;58.80
16431;BME280;8325;49.284;7.238;2023-02-28T11:31:04;99606.16;;;1.91;58.61
16431;BME280;8325;49.284;7.238;2023-02-28T11:39:39;99592.28;;;2.21;57.75
16431;BME280;8325;49.284;7.238;2023-02-28T11:57:35;99575.66;;;2.39;55.96
16431;BME280;8325;49.284;7.238;2023-02-28T12:02:04;99574.97;;;2.37;55.63
16431;BME280;8325;49.284;7.238;2023-02-28T12:15:34;99581.13;;;2.62;54.53
16431;BME280;8325;49.284;7.238;2023-02-28T12:28:56;99570.25;;;2.84;53.12
16431;BME280;8325;49.284;7.238;2023-02-28T12:33:13;99562.81;;;2.79;52.62
16431;BME280;8325;49.284;7.238;2023-02-28T12:37:45;99567.78;;;3.08;52.08
16431;BME280;8325;49.284;7.238;2023-02-28T12:42:05;99569.47;;;3.47;52.14
16431;BME280;8325;49.284;7.238;2023-02-28T12:46:21;99558.59;;;3.80;51.40
16431;BME280;8325;49.284;7.238;2023-02-28T12:50:34;99555.22;;;3.67;51.62
16431;BME280;8325;49.284;7.238;2023-02-28T12:54:54;99553.97;;;3.47;51.61
16431;BME280;8325;49.284;7.238;2023-02-28T12:59:34;99547.94;;;3.72;51.07
16431;BME280;8325;49.284;7.238;2023-02-28T13:04:05;99549.78;;;3.96;50.59
16431;BME280;8325;49.284;7.238;2023-02-28T13:13:18;99543.16;;;4.28;48.27
16431;BME280;8325;49.284;7.238;2023-02-28T13:17:31;99547.31;;;3.81;48.95
16431;BME280;8325;49.284;7.238;2023-02-28T13:21:50;99544.81;;;3.92;48.58
16431;BME280;8325;49.284;7.238;2023-02-28T13:31:05;99557.38;;;3.35;49.76
16431;BME280;8325;49.284;7.238;2023-02-28T13:35:37;99555.63;;;3.35;50.20
16431;BME280;8325;49.284;7.238;2023-02-28T13:49:57;99535.44;;;3.91;49.18
16431;BME280;8325;49.284;7.238;2023-02-28T13:58:55;99548.69;;;3.74;49.02
16431;BME280;8325;49.284;7.238;2023-02-28T14:07:43;99539.34;;;4.21;48.44
16431;BME280;8325;49.284;7.238;2023-02-28T14:16:54;99543.41;;;4.12;48.18
16431;BME280;8325;49.284;7.238;2023-02-28T14:21:27;99551.91;;;4.38;48.31
16431;BME280;8325;49.284;7.238;2023-02-28T14:39:45;99550.94;;;4.28;48.34
16431;BME280;8325;49.284;7.238;2023-02-28T14:43:59;99555.03;;;4.31;48.54
16431;BME280;8325;49.284;7.238;2023-02-28T14:48:11;99556.31;;;4.25;48.46
16431;BME280;8325;49.284;7.238;2023-02-28T14:52:28;99544.75;;;4.42;48.05
16431;BME280;8325;49.284;7.238;2023-02-28T14:56:41;99549.03;;;4.30;47.58
16431;BME280;8325;49.284;7.238;2023-02-28T15:00:55;99561.72;;;4.22;48.43
16431;BME280;8325;49.284;7.238;2023-02-28T15:09:28;99567.97;;;4.07;48.26
16431;BME280;8325;49.284;7.238;2023-02-28T15:13:46;99548.78;;;3.85;48.68
16431;BME280;8325;49.284;7.238;2023-02-28T15:17:59;99554.53;;;4.02;48.91
16431;BME280;8325;49.284;7.238;2023-02-28T15:22:17;99563.31;;;3.99;48.41
16431;BME280;8325;49.284;7.238;2023-02-28T15:26:40;99545.81;;;4.03;49.08
16431;BME280;8325;49.284;7.238;2023-02-28T15:31:02;99544.06;;;4.03;48.76
16431;BME280;8325;49.284;7.238;2023-02-28T15:35:25;99546.00;;;4.12;48.52
16431;BME280;8325;49.284;7.238;2023-02-28T15:39:42;99552.88;;;4.01;48.29
16431;BME280;8325;49.284;7.238;2023-02-28T15:44:14;99544.19;;;4.02;48.84
16431;BME280;8325;49.284;7.238;2023-02-28T15:52:49;99549.31;;;4.14;48.67
16431;BME280;8325;49.284;7.238;2023-02-28T15:57:05;99542.50;;;4.13;49.12
16431;BME280;8325;49.284;7.238;2023-02-28T16:01:24;99548.84;;;3.97;49.72
16431;BME280;8325;49.284;7.238;2023-02-28T16:05:36;99561.88;;;3.95;49.18
16431;BME280;8325;49.284;7.238;2023-02-28T16:09:48;99566.47;;;3.79;49.68
16431;BME280;8325;49.284;7.238;2023-02-28T16:13:59;99561.19;;;3.80;49.96
16431;BME280;8325;49.284;7.238;2023-02-28T16:18:12;99556.97;;;3.79;50.04
16431;BME280;8325;49.284;7.238;2023-02-28T16:22:23;99570.94;;;3.64;50.69
16431;BME280;8325;49.284;7.238;2023-02-28T16:26:36;99574.72;;;3.71;50.46
16431;BME280;8325;49.284;7.238;2023-02-28T16:30:53;99577.41;;;3.57;51.21
16431;BME280;8325;49.284;7.238;2023-02-28T16:35:05;99581.88;;;3.55;51.10
16431;BME280;8325;49.284;7.238;2023-02-28T16:39:20;99582.59;;;3.44;51.04
16431;BME280;8325;49.284;7.238;2023-02-28T16:43:32;99583.13;;;3.36;51.34
16431;BME280;8325;49.284;7.238;2023-02-28T16:47:44;99591.50;;;3.27;51.54
16431;BME280;8325;49.284;7.238;2023-02-28T16:51:55;99596.31;;;3.19;52.04
16431;BME280;8325;49.284;7.238;2023-02-28T16:56:14;99603.03;;;3.09;52.61
16431;BME280;8325;49.284;7.238;2023-02-28T17:00:29;99592.38;;;3.00;52.82
16431;BME280;8325;49.284;7.238;2023-02-28T17:04:41;99598.31;;;2.88;53.58
16431;BME280;8325;49.284;7.238;2023-02-28T17:08:53;99610.88;;;2.80;53.67
16431;BME280;8325;49.284;7.238;2023-02-28T17:13:04;99608.63;;;2.75;54.23
16431;BME280;8325;49.284;7.238;2023-02-28T17:17:25;99618.16;;;2.61;54.45
16431;BME280;8325;49.284;7.238;2023-02-28T17:21:37;99625.66;;;2.51;55.11
16431;BME280;8325;49.284;7.238;2023-02-28T17:25:49;99636.34;;;2.45;54.98
16431;BME280;8325;49.284;7.238;2023-02-28T17:30:25;99647.97;;;2.38;55.09
16431;BME280;8325;49.284;7.238;2023-02-28T17:34:38;99650.63;;;2.36;55.14
16431;BME280;8325;49.284;7.238;2023-02-28T17:38:50;99664.28;;;2.24;55.90
16431;BME280;8325;49.284;7.238;2023-02-28T17:43:01;99667.16;;;2.19;56.15
16431;BME280;8325;49.284;7.238;2023-02-28T17:47:13;99667.78;;;2.08;56.79
16431;BME280;8325;49.284;7.238;2023-02-28T17:51:24;99667.25;;;2.03;57.12
16431;BME280;8325;49.284;7.238;2023-02-28T17:55:36;99668.19;;;1.88;57.27
16431;BME280;8325;49.284;7.238;2023-02-28T17:59:47;99673.69;;;1.82;57.32
16431;BME280;8325;49.284;7.238;2023-02-28T18:03:59;99682.69;;;1.75;57.45
16431;BME280;8325;49.284;7.238;2023-02-28T18:08:11;99675.78;;;1.61;58.88
16431;BME280;8325;49.284;7.238;2023-02-28T18:12:23;99679.97;;;1.48;59.32
16431;BME280;8325;49.284;7.238;2023-02-28T18:16:35;99680.50;;;1.38;60.32
16431;BME280;8325;49.284;7.238;2023-02-28T18:20:47;99680.19;;;1.29;60.67
16431;BME280;8325;49.284;7.238;2023-02-28T18:25:02;99674.91;;;1.16;61.79
16431;BME280;8325;49.284;7.238;2023-02-28T18:29:20;99676.78;;;0.98;62.29
16431;BME280;8325;49.284;7.238;2023-02-28T18:33:32;99671.63;;;0.98;61.98
16431;BME280;8325;49.284;7.238;2023-02-28T18:37:43;99678.47;;;0.83;63.14
16431;BME280;8325;49.284;7.238;2023-02-28T18:41:55;99675.56;;;0.74;63.53
16431;BME280;8325;49.284;7.238;2023-02-28T18:46:10;99676.16;;;0.63;63.85
16431;BME280;8325;49.284;7.238;2023-02-28T18:50:22;99679.13;;;0.55;64.53
16431;BME280;8325;49.284;7.238;2023-02-28T18:54:34;99684.44;;;0.52;64.23
16431;BME280;8325;49.284;7.238;2023-02-28T18:58:46;99681.63;;;0.41;64.89
16431;BME280;8325;49.284;7.238;2023-02-28T19:02:57;99681.97;;;0.35;64.98
16431;BME280;8325;49.284;7.238;2023-02-28T19:07:09;99683.59;;;0.36;65.31
16431;BME280;8325;49.284;7.238;2023-02-28T19:11:20;99691.66;;;0.30;65.49
16431;BME280;8325;49.284;7.238;2023-02-28T19:15:32;99684.25;;;0.23;64.92
16431;BME280;8325;49.284;7.238;2023-02-28T19:19:44;99688.59;;;0.39;63.75
16431;BME280;8325;49.284;7.238;2023-02-28T19:23:55;99691.97;;;0.39;63.97
16431;BME280;8325;49.284;7.238;2023-02-28T19:28:07;99684.44;;;0.36;64.59
16431;BME280;8325;49.284;7.238;2023-02-28T19:32:19;99687.00;;;0.36;64.21
16431;BME280;8325;49.284;7.238;2023-02-28T19:36:31;99684.03;;;0.44;63.78
16431;BME280;8325;49.284;7.238;2023-02-28T19:40:43;99687.09;;;0.51;62.85
16431;BME280;8325;49.284;7.238;2023-02-28T19:44:55;99681.22;;;0.49;62.33
16431;BME280;8325;49.284;7.238;2023-02-28T19:49:06;99693.84;;;0.53;62.72
16431;BME280;8325;49.284;7.238;2023-02-28T19:53:18;99691.31;;;0.52;63.24
16431;BME280;8325;49.284;7.238;2023-02-28T19:57:29;99684.94;;;0.43;63.90
16431;BME280;8325;49.284;7.238;2023-02-28T20:01:41;99695.69;;;0.34;63.95
16431;BME280;8325;49.284;7.238;2023-02-28T20:06:04;99708.16;;;0.26;64.36
16431;BME280;8325;49.284;7.238;2023-02-28T20:10:17;99698.03;;;0.22;64.31
16431;BME280;8325;49.284;7.238;2023-02-28T20:14:29;99693.56;;;0.26;64.03
16431;BME280;8325;49.284;7.238;2023-02-28T20:18:40;99689.88;;;0.14;64.56
16431;BME280;8325;49.284;7.238;2023-02-28T20:22:54;99690.53;;;0.18;64.19
16431;BME280;8325;49.284;7.238;2023-02-28T20:27:06;99684.25;;;0.23;64.00
16431;BME280;8325;49.284;7.238;2023-02-28T20:31:19;99684.75;;;0.14;64.36
16431;BME280;8325;49.284;7.238;2023-02-28T20:35:32;99680.59;;;0.12;64.69
16431;BME280;8325;49.284;7.238;2023-02-28T20:39:44;99686.22;;;0.18;64.66
16431;BME280;8325;49.284;7.238;2023-02-28T20:43:56;99687.63;;;0.08;64.95
16431;BME280;8325;49.284;7.238;2023-02-28T20:48:09;99685.22;;;0.05;64.96
16431;BME280;8325;49.284;7.238;2023-02-28T20:52:21;99683.56;;;0.04;65.63
16431;BME280;8325;49.284;7.238;2023-02-28T20:56:33;99682.56;;;-0.09;65.73
16431;BME280;8325;49.284;7.238;2023-02-28T21:00:44;99686.00;;;-0.10;65.84
16431;BME280;8325;49.284;7.238;2023-02-28T21:04:57;99679.06;;;-0.08;65.88
16431;BME280;8325;49.284;7.238;2023-02-28T21:09:09;99677.94;;;-0.03;65.36
16431;BME280;8325;49.284;7.238;2023-02-28T21:13:20;99676.56;;;-0.10;65.70
16431;BME280;8325;49.284;7.238;2023-02-28T21:17:32;99674.09;;;-0.11;65.90
16431;BME280;8325;49.284;7.238;2023-02-28T21:21:44;99669.63;;;-0.08;65.66
16431;BME280;8325;49.284;7.238;2023-02-28T21:26:06;99668.47;;;-0.02;65.89
16431;BME280;8325;49.284;7.238;2023-02-28T21:30:18;99664.94;;;-0.17;66.49
16431;BME280;8325;49.284;7.238;2023-02-28T21:34:29;99665.09;;;-0.20;67.20
16431;BME280;8325;49.284;7.238;2023-02-28T21:38:42;99674.56;;;-0.20;66.68
16431;BME280;8325;49.284;7.238;2023-02-28T21:42:54;99676.53;;;-0.26;67.17
16431;BME280;8325;49.284;7.238;2023-02-28T21:47:06;99672.22;;;-0.25;66.92
16431;BME280;8325;49.284;7.238;2023-02-28T21:51:23;99667.06;;;-0.25;67.17
16431;BME280;8325;49.284;7.238;2023-02-28T21:55:35;99660.22;;;-0.25;67.04
16431;BME280;8325;49.284;7.238;2023-02-28T21:59:47;99663.69;;;-0.26;67.49
16431;BME280;8325;49.284;7.238;2023-02-28T22:04:00;99662.19;;;-0.30;67.55
16431;BME280;8325;49.284;7.238;2023-02-28T22:08:11;99653.00;;;-0.34;67.64
16431;BME280;8325;49.284;7.238;2023-02-28T22:12:23;99659.84;;;-0.34;68.23
16431;BME280;8325;49.284;7.238;2023-02-28T22:16:36;99660.25;;;-0.42;68.16
16431;BME280;8325;49.284;7.238;2023-02-28T22:21:02;99656.09;;;-0.44;68.41
16431;BME280;8325;49.284;7.238;2023-02-28T22:25:14;99661.22;;;-0.44;68.42
16431;BME280;8325;49.284;7.238;2023-02-28T22:29:27;99658.75;;;-0.46;68.90
